Time;durP1;ratioP1;P1;durP2;ratioP2;P2;SDS_P1;SDS_P2;PMS_P1;PMS_P2;Temp;Humidity;BMP_temperature;BMP_pressure;BME280_temperature;BME280_humidity;BME280_pressure;Samples;Min_cycle;Max_cycle;Signal;HPM_P1;HPM_P2
2023/09/06 00:01:40;;;;;;;;;;;;;;;18.57;100.00;100373.94;4896987;29;20408;-81
2023/09/06 00:04:06;;;;;;;;;;;;;;;18.61;100.00;100372.63;4897941;29;19923;-80
2023/09/06 00:06:31;;;;;;;;;;;;;;;18.64;100.00;100366.91;4897406;29;19927;-81
2023/09/06 00:08:56;;;;;;;;;;;;;;;18.68;100.00;100360.19;4897327;29;19934;-81
2023/09/06 00:11:22;;;;;;;;;;;;;;;18.68;100.00;100360.19;4897105;29;20289;-81
2023/09/06 00:13:47;;;;;;;;;;;;;;;18.73;100.00;100363.19;4896622;29;20337;-80
2023/09/06 00:16:13;;;;;;;;;;;;;;;18.73;100.00;100353.31;4896174;29;20397;-80
2023/09/06 00:18:38;;;;;;;;;;;;;;;18.70;100.00;100360.88;4895940;29;19946;-82
2023/09/06 00:21:04;;;;;;;;;;;;;;;18.60;100.00;100352.25;4896295;29;20034;-80
2023/09/06 00:23:29;;;;;;;;;;;;;;;18.46;100.00;100344.91;4896327;29;19924;-82
2023/09/06 00:25:55;;;;;;;;;;;;;;;18.28;100.00;100351.34;4893666;29;19923;-82
2023/09/06 00:28:20;;;;;;;;;;;;;;;18.23;100.00;100348.34;4895471;29;20050;-80
2023/09/06 00:30:46;;;;;;;;;;;;;;;18.29;100.00;100347.66;4906698;29;20389;-82
2023/09/06 00:33:12;;;;;;;;;;;;;;;18.19;100.00;100355.06;4895940;29;19924;-82
2023/09/06 00:35:40;;;;;;;;;;;;;;;18.19;100.00;100344.38;4895186;29;19928;-82
2023/09/06 00:38:06;;;;;;;;;;;;;;;18.15;100.00;100348.38;4894824;29;20581;-83
2023/09/06 00:40:37;;;;;;;;;;;;;;;18.16;100.00;100350.03;4894643;29;20386;-83
2023/09/06 00:43:06;;;;;;;;;;;;;;;18.07;100.00;100351.09;4895721;29;19924;-83
2023/09/06 00:45:44;;;;;;;;;;;;;;;18.06;100.00;100346.75;4895904;29;19923;-83
2023/09/06 00:48:10;;;;;;;;;;;;;;;17.93;100.00;100344.59;4895589;29;19923;-83
2023/09/06 00:50:35;;;;;;;;;;;;;;;17.81;100.00;100339.78;4895473;29;20377;-83
2023/09/06 00:53:01;;;;;;;;;;;;;;;17.81;100.00;100339.78;4894538;29;19971;-82
2023/09/06 00:55:26;;;;;;;;;;;;;;;17.81;100.00;100342.47;4895454;29;19950;-83
2023/09/06 00:57:52;;;;;;;;;;;;;;;17.89;100.00;100334.44;4894129;29;20049;-82
2023/09/06 01:00:19;;;;;;;;;;;;;;;17.87;100.00;100337.28;4893457;29;19927;-83
2023/09/06 01:02:45;;;;;;;;;;;;;;;17.83;100.00;100343.13;4893549;29;19967;-82
2023/09/06 01:05:10;;;;;;;;;;;;;;;17.77;100.00;100335.81;4895383;29;19978;-81
2023/09/06 01:07:38;;;;;;;;;;;;;;;17.81;100.00;100340.63;4895369;29;19997;-81
2023/09/06 01:10:03;;;;;;;;;;;;;;;17.78;100.00;100337.47;4895363;29;20006;-81
2023/09/06 01:12:29;;;;;;;;;;;;;;;17.51;100.00;100339.47;4834652;29;1783068;-81
2023/09/06 01:14:54;;;;;;;;;;;;;;;17.40;100.00;100337.16;4896821;29;19955;-81
2023/09/06 01:17:21;;;;;;;;;;;;;;;17.40;100.00;100330.97;4896100;29;19942;-80
2023/09/06 01:19:51;;;;;;;;;;;;;;;17.41;100.00;100330.81;4896653;29;20428;-81
2023/09/06 01:22:22;;;;;;;;;;;;;;;17.50;100.00;100326.28;4896428;29;19923;-81
2023/09/06 01:24:49;;;;;;;;;;;;;;;17.59;100.00;100323.47;4893510;29;19924;-82
2023/09/06 01:27:15;;;;;;;;;;;;;;;17.74;100.00;100322.78;4894770;29;20017;-82
2023/09/06 01:29:40;;;;;;;;;;;;;;;17.77;100.00;100323.28;4895855;29;19947;-82
2023/09/06 01:32:05;;;;;;;;;;;;;;;17.65;100.00;100324.66;4915161;29;20280;-81
2023/09/06 01:34:31;;;;;;;;;;;;;;;17.64;100.00;100327.47;4912675;29;19970;-80
2023/09/06 01:36:56;;;;;;;;;;;;;;;17.64;100.00;100322.97;4903329;29;19927;-81
2023/09/06 01:39:22;;;;;;;;;;;;;;;17.66;100.00;100320.16;4895694;29;20341;-81
2023/09/06 01:41:47;;;;;;;;;;;;;;;17.66;100.00;100314.81;4895911;29;20404;-81
2023/09/06 01:44:14;;;;;;;;;;;;;;;17.68;100.00;100308.28;4895476;29;19924;-81
2023/09/06 01:46:40;;;;;;;;;;;;;;;17.76;100.00;100316.28;4895013;29;19934;-81
2023/09/06 01:49:05;;;;;;;;;;;;;;;17.76;100.00;100315.44;4894359;29;19999;-81
2023/09/06 01:51:31;;;;;;;;;;;;;;;17.73;100.00;100313.13;4895254;29;20408;-81
2023/09/06 01:53:56;;;;;;;;;;;;;;;17.73;100.00;100299.78;4895842;29;19935;-81
2023/09/06 01:56:22;;;;;;;;;;;;;;;17.63;100.00;100302.63;4893992;29;19924;-81
2023/09/06 01:58:47;;;;;;;;;;;;;;;17.69;100.00;100303.78;4878454;29;20334;-81
2023/09/06 02:01:12;;;;;;;;;;;;;;;17.68;100.00;100307.44;4893597;29;19930;-81
2023/09/06 02:03:38;;;;;;;;;;;;;;;17.65;100.00;100305.13;4895178;29;20385;-81
2023/09/06 02:06:04;;;;;;;;;;;;;;;17.69;100.00;100298.44;4894406;29;20385;-82
2023/09/06 02:08:30;;;;;;;;;;;;;;;17.70;100.00;100300.13;4893992;29;19923;-83
2023/09/06 02:10:55;;;;;;;;;;;;;;;17.67;100.00;100295.13;4895272;29;19931;-83
2023/09/06 02:13:20;;;;;;;;;;;;;;;17.49;100.00;100297.97;4893929;29;19929;-84
2023/09/06 02:15:46;;;;;;;;;;;;;;;17.52;100.00;100293.13;4895077;29;19924;-83
2023/09/06 02:18:15;;;;;;;;;;;;;;;17.57;100.00;100296.09;4894037;29;19919;-81
2023/09/06 02:20:41;;;;;;;;;;;;;;;17.62;100.00;100284.94;4909681;29;19927;-82
2023/09/06 02:23:07;;;;;;;;;;;;;;;17.65;100.00;100286.44;4894145;29;19931;-82
2023/09/06 02:25:33;;;;;;;;;;;;;;;17.66;100.00;100285.44;4895507;29;19926;-82
2023/09/06 02:28:03;;;;;;;;;;;;;;;17.54;100.00;100280.44;4894481;29;20288;-80
2023/09/06 02:30:28;;;;;;;;;;;;;;;17.63;100.00;100280.44;4896295;29;20049;-81
2023/09/06 02:32:54;;;;;;;;;;;;;;;17.67;100.00;100279.13;4896116;29;19923;-81
2023/09/06 02:35:20;;;;;;;;;;;;;;;17.56;100.00;100270.41;4896447;29;20072;-81
2023/09/06 02:37:46;;;;;;;;;;;;;;;17.62;100.00;100268.09;4894076;29;19927;-81
2023/09/06 02:40:17;;;;;;;;;;;;;;;17.55;100.00;100271.41;4895319;29;19924;-81
2023/09/06 02:42:44;;;;;;;;;;;;;;;17.51;100.00;100270.09;4895135;29;19932;-82
2023/09/06 02:45:11;;;;;;;;;;;;;;;17.54;100.00;100274.28;4893841;29;20253;-82
2023/09/06 02:47:47;;;;;;;;;;;;;;;17.50;100.00;100270.25;4894270;29;20006;-82
2023/09/06 02:50:13;;;;;;;;;;;;;;;17.53;100.00;100272.59;4895272;29;19923;-81
2023/09/06 02:52:39;;;;;;;;;;;;;;;17.59;100.00;100272.75;4893478;29;19927;-82
2023/09/06 02:55:10;;;;;;;;;;;;;;;17.61;100.00;100272.63;4894220;29;19935;-82
2023/09/06 02:57:35;;;;;;;;;;;;;;;17.67;100.00;100263.09;4895252;29;19978;-83
2023/09/06 03:00:01;;;;;;;;;;;;;;;17.66;100.00;100269.44;4895714;29;20002;-83
2023/09/06 03:02:27;;;;;;;;;;;;;;;17.56;100.00;100257.06;4892866;29;19927;-82
2023/09/06 03:05:03;;;;;;;;;;;;;;;17.58;100.00;100255.06;4895083;29;19947;-82
2023/09/06 03:07:31;;;;;;;;;;;;;;;17.54;100.00;100248.41;4893457;29;20573;-82
2023/09/06 03:09:57;;;;;;;;;;;;;;;17.53;100.00;100245.91;4893783;29;20366;-83
2023/09/06 03:12:22;;;;;;;;;;;;;;;17.55;100.00;100250.06;4894632;29;19942;-82
2023/09/06 03:14:50;;;;;;;;;;;;;;;17.53;100.00;100252.09;4893766;29;19924;-82
2023/09/06 03:17:18;;;;;;;;;;;;;;;17.46;100.00;100250.25;4893317;29;19923;-82
2023/09/06 03:19:46;;;;;;;;;;;;;;;17.35;100.00;100243.47;4893639;29;19954;-84
2023/09/06 03:22:12;;;;;;;;;;;;;;;17.30;100.00;100248.47;4893738;29;19939;-81
2023/09/06 03:24:43;;;;;;;;;;;;;;;17.29;100.00;100244.13;4893502;29;20042;-81
2023/09/06 03:27:10;;;;;;;;;;;;;;;16.98;100.00;100245.81;4893527;29;19988;-82
2023/09/06 03:29:39;;;;;;;;;;;;;;;16.69;100.00;100239.16;4893479;29;19923;-81
2023/09/06 03:32:08;;;;;;;;;;;;;;;16.87;100.00;100239.00;4894310;29;19923;-82
2023/09/06 03:34:35;;;;;;;;;;;;;;;16.87;100.00;100243.47;4895422;29;19930;-83
2023/09/06 03:37:04;;;;;;;;;;;;;;;16.67;100.00;100238.47;4898506;29;19924;-83
2023/09/06 03:39:31;;;;;;;;;;;;;;;16.62;100.00;100245.28;4898205;29;19923;-83
2023/09/06 03:42:00;;;;;;;;;;;;;;;16.75;100.00;100241.16;4896968;29;19924;-82
2023/09/06 03:44:27;;;;;;;;;;;;;;;16.73;100.00;100247.63;4896786;29;19999;-83
2023/09/06 03:46:56;;;;;;;;;;;;;;;16.72;100.00;100252.16;4897236;29;19927;-81
2023/09/06 03:49:23;;;;;;;;;;;;;;;16.74;100.00;100250.13;4897673;29;20093;-83
2023/09/06 03:51:49;;;;;;;;;;;;;;;16.63;100.00;100247.81;4896730;29;19924;-83
2023/09/06 03:54:17;;;;;;;;;;;;;;;16.49;100.00;100245.78;4898106;29;19943;-83
2023/09/06 03:56:43;;;;;;;;;;;;;;;16.54;100.00;100240.78;4896518;29;19994;-81
2023/09/06 03:59:09;;;;;;;;;;;;;;;16.59;100.00;100249.13;4898015;29;19919;-81
2023/09/06 04:01:34;;;;;;;;;;;;;;;16.58;100.00;100244.78;4897215;29;19996;-83
2023/09/06 04:04:00;;;;;;;;;;;;;;;16.39;100.00;100250.38;4896531;29;20015;-83
2023/09/06 04:06:28;;;;;;;;;;;;;;;16.51;100.00;100250.91;4896296;29;19927;-82
2023/09/06 04:08:54;;;;;;;;;;;;;;;16.63;100.00;100247.81;4896378;29;20389;-81
2023/09/06 04:11:20;;;;;;;;;;;;;;;16.73;100.00;100243.13;4897722;29;19923;-83
2023/09/06 04:13:46;;;;;;;;;;;;;;;16.76;100.00;100248.16;4896232;29;19934;-83
2023/09/06 04:16:16;;;;;;;;;;;;;;;16.82;100.00;100243.16;4943546;23;20018;-74
2023/09/06 04:18:44;;;;;;;;;;;;;;;16.76;100.00;100242.81;4914753;29;19923;-75
2023/09/06 04:21:10;;;;;;;;;;;;;;;16.86;100.00;100241.81;4914067;29;19963;-73
2023/09/06 04:23:36;;;;;;;;;;;;;;;16.81;100.00;100238.81;4914176;29;19923;-74
2023/09/06 04:26:03;;;;;;;;;;;;;;;16.88;100.00;100239.81;4914840;29;19929;-74
2023/09/06 04:28:29;;;;;;;;;;;;;;;16.88;100.00;100242.50;4914472;29;19975;-73
2023/09/06 04:31:00;;;;;;;;;;;;;;;16.81;100.00;100246.81;4914273;29;20010;-73
2023/09/06 04:33:31;;;;;;;;;;;;;;;16.76;100.00;100245.50;4914347;29;20338;-73
2023/09/06 04:36:04;;;;;;;;;;;;;;;16.76;100.00;100237.50;4914606;29;19927;-73
2023/09/06 04:38:31;;;;;;;;;;;;;;;16.81;100.00;100244.16;4898540;29;19931;-74
2023/09/06 04:40:58;;;;;;;;;;;;;;;16.77;100.00;100235.66;4914559;29;19930;-74
2023/09/06 04:43:28;;;;;;;;;;;;;;;16.85;100.00;100237.50;4911664;29;19923;-72
2023/09/06 04:45:54;;;;;;;;;;;;;;;16.83;100.00;100236.84;4910439;29;19928;-74
2023/09/06 04:48:23;;;;;;;;;;;;;;;16.73;100.00;100240.47;4915713;29;19923;-73
2023/09/06 04:50:55;;;;;;;;;;;;;;;16.67;100.00;100232.34;4898921;29;19930;-73
2023/09/06 04:53:21;;;;;;;;;;;;;;;16.71;100.00;100234.50;4913991;29;19923;-73
2023/09/06 04:55:49;;;;;;;;;;;;;;;16.80;100.00;100248.66;4914282;29;19964;-75
2023/09/06 04:58:18;;;;;;;;;;;;;;;16.77;100.00;100247.16;4910641;29;19923;-76
2023/09/06 05:00:47;;;;;;;;;;;;;;;16.82;100.00;100253.81;4915050;29;20162;-75
2023/09/06 05:03:13;;;;;;;;;;;;;;;16.86;100.00;100252.47;4916914;29;20055;-75
2023/09/06 05:05:40;;;;;;;;;;;;;;;16.75;100.00;100249.16;4913795;29;19977;-75
2023/09/06 05:08:06;;;;;;;;;;;;;;;16.77;100.00;100244.50;4914015;29;20038;-75
2023/09/06 05:10:35;;;;;;;;;;;;;;;16.76;100.00;100240.16;4913656;29;20300;-75
2023/09/06 05:13:07;;;;;;;;;;;;;;;16.61;100.00;100244.47;4914055;29;19923;-75
2023/09/06 05:15:37;;;;;;;;;;;;;;;16.46;100.00;100246.09;4913278;29;19927;-75
2023/09/06 05:18:06;;;;;;;;;;;;;;;16.44;100.00;100242.72;4915382;29;20014;-75
2023/09/06 05:20:33;;;;;;;;;;;;;;;16.33;100.00;100249.22;4913396;29;19966;-75
2023/09/06 05:23:03;;;;;;;;;;;;;;;16.34;100.00;100248.22;4913868;29;19923;-75
2023/09/06 05:25:31;;;;;;;;;;;;;;;16.14;100.00;100246.00;4913558;29;19919;-73
2023/09/06 05:28:00;;;;;;;;;;;;;;;16.02;100.00;100245.47;4915723;29;19923;-75
2023/09/06 05:30:26;;;;;;;;;;;;;;;16.15;100.00;100247.66;4913371;29;20291;-73
2023/09/06 05:32:56;;;;;;;;;;;;;;;16.26;100.00;100253.50;4913875;29;19930;-73
2023/09/06 05:35:22;;;;;;;;;;;;;;;16.31;100.00;100253.06;4911498;29;19927;-73
2023/09/06 05:37:48;;;;;;;;;;;;;;;16.31;100.00;100250.38;4910563;29;19927;-74
2023/09/06 05:40:15;;;;;;;;;;;;;;;16.34;100.00;100252.72;4911124;29;19982;-73
2023/09/06 05:42:40;;;;;;;;;;;;;;;16.39;100.00;100259.22;4912221;29;19931;-73
2023/09/06 05:45:10;;;;;;;;;;;;;;;16.36;100.00;100256.06;4913868;29;20353;-73
2023/09/06 05:47:38;;;;;;;;;;;;;;;16.29;100.00;100255.88;4910680;29;19996;-74
2023/09/06 05:50:08;;;;;;;;;;;;;;;16.36;100.00;100256.06;4911639;29;19923;-74
2023/09/06 05:52:35;;;;;;;;;;;;;;;16.43;100.00;100250.91;4911692;29;19927;-73
2023/09/06 05:55:01;;;;;;;;;;;;;;;16.50;100.00;100244.75;4914125;29;20266;-73
2023/09/06 05:57:27;;;;;;;;;;;;;;;16.57;100.00;100243.09;4909293;29;20014;-74
2023/09/06 05:59:53;;;;;;;;;;;;;;;16.57;100.00;100258.25;4912349;29;19927;-73
2023/09/06 06:02:18;;;;;;;;;;;;;;;16.64;100.00;100256.63;4909835;29;20118;-73
2023/09/06 06:04:46;;;;;;;;;;;;;;;16.60;100.00;100248.16;4913435;29;19959;-72
2023/09/06 06:07:13;;;;;;;;;;;;;;;16.67;100.00;100254.47;4912726;29;20399;-72
2023/09/06 06:09:38;;;;;;;;;;;;;;;16.77;100.00;100260.50;4910036;29;19927;-73
2023/09/06 06:12:04;;;;;;;;;;;;;;;16.82;100.00;100259.16;4910213;29;19930;-72
2023/09/06 06:14:30;;;;;;;;;;;;;;;16.91;100.00;100266.13;4910411;29;20405;-74
2023/09/06 06:16:57;;;;;;;;;;;;;;;16.96;100.00;100264.66;4913275;29;19927;-74
2023/09/06 06:19:23;;;;;;;;;;;;;;;16.94;100.00;100263.16;4923212;29;19923;-73
2023/09/06 06:21:49;;;;;;;;;;;;;;;16.96;100.00;100269.16;4911588;29;19923;-75
2023/09/06 06:24:14;;;;;;;;;;;;;;;17.05;100.00;100268.16;4912936;29;19930;-73
2023/09/06 06:26:40;;;;;;;;;;;;;;;17.16;100.00;100270.47;4909587;29;19934;-73
2023/09/06 06:29:05;;;;;;;;;;;;;;;17.17;100.00;100267.66;4911570;29;19923;-74
2023/09/06 06:31:31;;;;;;;;;;;;;;;17.17;100.00;100266.81;4912296;29;19974;-72
2023/09/06 06:33:58;;;;;;;;;;;;;;;17.17;100.00;100277.47;4910823;29;19919;-73
2023/09/06 06:36:24;;;;;;;;;;;;;;;17.21;100.00;100273.47;4909357;29;20395;-72
2023/09/06 06:38:50;;;;;;;;;;;;;;;17.29;100.00;100275.31;4913805;29;19926;-73
2023/09/06 06:41:22;;;;;;;;;;;;;;;17.36;100.00;100271.81;4906669;29;19927;-72
2023/09/06 06:43:51;;;;;;;;;;;;;;;17.40;100.00;100278.47;4908142;29;19923;-74
2023/09/06 06:46:27;;;;;;;;;;;;;;;17.45;100.00;100281.44;4911827;29;20361;-73
2023/09/06 06:48:53;;;;;;;;;;;;;;;17.45;100.00;100277.94;4909933;29;20029;-73
2023/09/06 06:51:18;;;;;;;;;;;;;;;17.45;100.00;100270.78;4912701;29;19954;-74
2023/09/06 06:53:44;;;;;;;;;;;;;;;17.52;100.00;100273.59;4910078;29;19927;-74
2023/09/06 06:56:09;;;;;;;;;;;;;;;17.53;100.00;100278.78;4909139;29;19928;-73
2023/09/06 06:58:34;;;;;;;;;;;;;;;17.61;100.00;100285.13;4912481;29;20017;-74
2023/09/06 07:01:00;;;;;;;;;;;;;;;17.67;100.00;100271.91;4911734;29;20005;-75
2023/09/06 07:03:26;;;;;;;;;;;;;;;17.75;100.00;100281.75;4914497;29;19963;-73
2023/09/06 07:05:51;;;;;;;;;;;;;;;17.82;100.00;100282.72;4233672;29;10000699;-73
2023/09/06 07:08:17;;;;;;;;;;;;;;;17.95;100.00;100286.53;4910810;29;19927;-74
2023/09/06 07:10:42;;;;;;;;;;;;;;;18.02;100.00;100278.66;4910625;29;19968;-74
2023/09/06 07:13:07;;;;;;;;;;;;;;;18.09;100.00;100279.63;4915041;29;19970;-75
2023/09/06 07:15:32;;;;;;;;;;;;;;;18.10;100.00;100283.97;4911762;29;19926;-74
2023/09/06 07:18:01;;;;;;;;;;;;;;;18.19;100.00;100285.59;4896546;29;20455;-73
2023/09/06 07:20:26;;;;;;;;;;;;;;;18.34;100.00;100283.84;4230913;29;10000885;-73
2023/09/06 07:22:52;;;;;;;;;;;;;;;18.39;100.00;100291.34;4913052;29;20333;-73
2023/09/06 07:25:17;;;;;;;;;;;;;;;18.32;100.00;100279.66;4913969;29;19923;-73
2023/09/06 07:27:43;;;;;;;;;;;;;;;18.44;100.00;100288.97;4915398;29;20284;-74
2023/09/06 07:30:09;;;;;;;;;;;;;;;18.53;100.00;100287.09;4915023;29;20428;-73
2023/09/06 07:32:34;;;;;;;;;;;;;;;18.64;100.00;100286.72;4913621;29;20127;-74
2023/09/06 07:35:00;;;;;;;;;;;;;;;18.76;100.00;100287.97;4913262;29;19950;-75
2023/09/06 07:37:25;;;;;;;;;;;;;;;18.86;100.00;100288.56;4915702;29;19970;-75
2023/09/06 07:39:51;;;;;;;;;;;;;;;18.81;100.00;100290.94;4914365;29;20060;-74
2023/09/06 07:42:17;;;;;;;;;;;;;;;18.88;100.00;100291.91;4913409;29;19919;-73
2023/09/06 07:44:42;;;;;;;;;;;;;;;18.88;100.00;100286.56;4913117;29;19989;-74
2023/09/06 07:47:07;;;;;;;;;;;;;;;18.99;100.00;100286.13;4914187;29;19922;-74
2023/09/06 07:49:33;;;;;;;;;;;;;;;19.08;100.00;100287.75;4912876;29;19946;-74
2023/09/06 07:52:04;;;;;;;;;;;;;;;19.21;100.00;100287.94;4914794;29;20018;-75
2023/09/06 07:54:31;;;;;;;;;;;;;;;19.36;100.00;100284.47;4913072;29;20377;-73
2023/09/06 07:56:57;;;;;;;;;;;;;;;19.49;100.00;100282.88;4910960;29;19924;-73
2023/09/06 07:59:23;;;;;;;;;;;;;;;19.62;100.00;100284.91;4915007;29;19942;-74
2023/09/06 08:01:49;;;;;;;;;;;;;;;19.75;100.00;100290.47;4915851;29;19923;-73
2023/09/06 08:04:15;;;;;;;;;;;;;;;19.81;100.00;100284.38;4910924;29;19927;-74
2023/09/06 08:06:40;;;;;;;;;;;;;;;19.89;100.00;100286.13;4917034;29;20409;-73
2023/09/06 08:09:05;;;;;;;;;;;;;;;19.94;100.00;100292.59;4914748;29;20463;-73
2023/09/06 08:11:31;;;;;;;;;;;;;;;20.04;100.00;100295.81;4911833;29;19930;-73
2023/09/06 08:13:57;;;;;;;;;;;;;;;20.09;100.00;100294.44;4913164;29;20402;-73
2023/09/06 08:16:23;;;;;;;;;;;;;;;20.19;100.00;100303.03;4911126;29;19975;-74
2023/09/06 08:18:48;;;;;;;;;;;;;;;20.29;100.00;100298.19;4912610;29;19927;-76
2023/09/06 08:21:15;;;;;;;;;;;;;;;20.34;100.00;100302.00;4907612;29;20078;-72
2023/09/06 08:23:41;;;;;;;;;;;;;;;20.45;100.00;100306.03;4911312;29;20071;-75
2023/09/06 08:26:06;;;;;;;;;;;;;;;20.52;100.00;100301.59;4909377;29;20385;-76
2023/09/06 08:28:31;;;;;;;;;;;;;;;20.62;100.00;100310.16;4910313;29;19923;-73
2023/09/06 08:30:58;;;;;;;;;;;;;;;20.70;100.00;100310.06;4913304;29;19924;-76
2023/09/06 08:33:24;;;;;;;;;;;;;;;20.78;100.00;100312.63;4915983;29;19994;-75
2023/09/06 08:35:49;;;;;;;;;;;;;;;20.85;100.00;100305.44;4912696;29;19937;-74
2023/09/06 08:38:15;;;;;;;;;;;;;;;20.96;100.00;100311.34;4909603;29;20420;-74
2023/09/06 08:40:40;;;;;;;;;;;;;;;21.03;100.00;100301.53;4911021;29;19938;-74
2023/09/06 08:43:07;;;;;;;;;;;;;;;21.12;100.00;100305.72;4914845;29;19923;-76
2023/09/06 08:45:33;;;;;;;;;;;;;;;21.16;100.00;100307.84;4913847;29;19962;-73
2023/09/06 08:47:58;;;;;;;;;;;;;;;21.24;100.00;100304.22;4914548;29;19923;-77
2023/09/06 08:50:24;;;;;;;;;;;;;;;21.31;100.00;100305.09;4909492;29;19930;-75
2023/09/06 08:52:51;;;;;;;;;;;;;;;21.37;100.00;100298.97;4911629;29;19923;-75
2023/09/06 08:55:17;;;;;;;;;;;;;;;21.45;100.00;100304.16;4912041;29;20014;-73
2023/09/06 08:57:44;;;;;;;;;;;;;;;21.52;100.00;100306.91;4914429;29;19966;-73
2023/09/06 09:00:10;;;;;;;;;;;;;;;21.58;100.00;100298.91;4913928;29;19923;-74
2023/09/06 09:02:40;;;;;;;;;;;;;;;21.64;100.00;100308.84;4909455;29;19927;-75
2023/09/06 09:05:06;;;;;;;;;;;;;;;21.70;100.00;100301.88;4910131;29;20381;-74
2023/09/06 09:07:31;;;;;;;;;;;;;;;21.77;100.00;100300.06;4916579;29;20344;-73
2023/09/06 09:09:58;;;;;;;;;;;;;;;21.84;100.00;100305.47;4913659;29;19923;-72
2023/09/06 09:12:28;;;;;;;;;;;;;;;21.90;100.00;100310.06;4912851;29;19923;-73
2023/09/06 09:14:54;;;;;;;;;;;;;;;21.99;100.00;100314.28;4913901;29;19971;-71
2023/09/06 09:17:21;;;;;;;;;;;;;;;22.05;100.00;100303.56;4918524;29;20013;-71
2023/09/06 09:19:47;;;;;;;;;;;;;;;22.14;100.00;100301.56;4914886;29;20265;-72
2023/09/06 09:22:13;;;;;;;;;;;;;;;22.19;100.00;100296.41;4915430;29;19934;-73
2023/09/06 09:24:38;;;;;;;;;;;;;;;22.26;100.00;100299.13;4911046;29;19954;-73
2023/09/06 09:27:03;;;;;;;;;;;;;;;22.30;100.00;100298.50;4911963;29;19927;-74
2023/09/06 09:29:29;;;;;;;;;;;;;;;22.37;100.00;100302.06;4909103;29;19923;-73
2023/09/06 09:31:59;;;;;;;;;;;;;;;22.40;100.00;100296.28;4908251;29;20665;-73
2023/09/06 09:34:25;;;;;;;;;;;;;;;22.45;100.00;100299.19;4914342;29;19923;-74
2023/09/06 09:36:51;;;;;;;;;;;;;;;22.51;100.00;100291.31;4913550;29;20301;-73
2023/09/06 09:39:18;;;;;;;;;;;;;;;22.56;100.00;100294.28;4914583;29;19958;-70
2023/09/06 09:41:43;;;;;;;;;;;;;;;22.61;100.00;100291.78;4913997;29;20399;-73
2023/09/06 09:44:15;;;;;;;;;;;;;;;22.66;100.00;100283.94;4914499;29;19974;-72
2023/09/06 09:46:43;;;;;;;;;;;;;;;22.69;100.00;100295.13;4909177;29;19983;-72
2023/09/06 09:49:10;;;;;;;;;;;;;;;22.71;100.00;100284.16;4911752;29;20022;-72
2023/09/06 09:51:36;;;;;;;;;;;;;;;22.76;100.00;100285.22;4914083;29;20410;-74
2023/09/06 09:54:03;;;;;;;;;;;;;;;22.81;100.00;100284.59;4914463;29;19923;-73
2023/09/06 09:56:29;;;;;;;;;;;;;;;22.87;100.00;100291.88;4913234;29;19945;-73
2023/09/06 09:58:55;;;;;;;;;;;;;;;22.92;100.00;100297.47;4911445;29;19934;-73
2023/09/06 10:01:22;;;;;;;;;;;;;;;22.98;100.00;100282.34;4911322;29;19926;-73
2023/09/06 10:03:49;;;;;;;;;;;;;;;23.06;100.00;100290.25;4913089;29;20292;-72
2023/09/06 10:06:15;;;;;;;;;;;;;;;23.13;100.00;100280.31;4914039;29;19923;-70
2023/09/06 10:08:42;;;;;;;;;;;;;;;23.16;100.00;100286.09;4913899;29;19927;-74
2023/09/06 10:11:08;;;;;;;;;;;;;;;23.22;100.00;100289.81;4914062;29;19970;-73
2023/09/06 10:13:36;;;;;;;;;;;;;;;23.26;100.00;100289.22;4913723;29;19923;-76
2023/09/06 10:16:01;;;;;;;;;;;;;;;23.31;100.00;100287.78;4913673;29;19931;-74
2023/09/06 10:18:27;;;;;;;;;;;;;;;23.33;100.00;100285.72;4912251;29;19986;-74
2023/09/06 10:20:53;;;;;;;;;;;;;;;23.35;100.00;100286.31;4913462;29;19930;-74
2023/09/06 10:23:19;;;;;;;;;;;;;;;23.40;100.00;100287.34;4913995;29;19993;-77
2023/09/06 10:25:49;;;;;;;;;;;;;;;23.47;100.00;100282.81;4913101;29;20436;-74
2023/09/06 10:28:15;;;;;;;;;;;;;;;23.55;100.00;100279.91;4913500;29;19930;-73
2023/09/06 10:30:46;;;;;;;;;;;;;;;23.59;100.00;100274.94;4909807;29;19923;-76
2023/09/06 10:33:33;;;;;;;;;;;;;;;23.61;100.00;100271.00;4913833;29;19924;-75
2023/09/06 10:36:03;;;;;;;;;;;;;;;23.64;100.00;100277.81;4911715;29;19930;-75
2023/09/06 10:38:30;;;;;;;;;;;;;;;23.70;100.00;100276.97;4911902;29;20376;-75
2023/09/06 10:40:55;;;;;;;;;;;;;;;23.73;100.00;100276.56;4231758;29;10000775;-73
2023/09/06 10:43:23;;;;;;;;;;;;;;;23.76;100.00;100276.13;4911700;29;20009;-75
2023/09/06 10:46:07;;;;;;;;;;;;;;;23.81;100.00;100273.63;4907734;29;19927;-74
2023/09/06 10:48:32;;;;;;;;;;;;;;;23.87;100.00;100272.78;4913831;29;19978;-75
2023/09/06 10:51:04;;;;;;;;;;;;;;;23.91;100.00;100276.75;4914139;29;19931;-75
2023/09/06 10:53:30;;;;;;;;;;;;;;;23.97;100.00;100275.88;4914796;29;20415;-76
2023/09/06 10:55:56;;;;;;;;;;;;;;;23.99;100.00;100267.56;4914797;29;19931;-74
2023/09/06 10:58:27;;;;;;;;;;;;;;;24.04;100.00;100265.88;4915027;29;20030;-74
2023/09/06 11:01:12;;;;;;;;;;;;;;;24.13;100.00;100262.97;4915035;29;19989;-74
2023/09/06 11:03:37;;;;;;;;;;;;;;;24.18;100.00;100268.53;4914071;29;19927;-75
2023/09/06 11:06:04;;;;;;;;;;;;;;;24.22;100.00;100259.00;4913773;29;20302;-75
2023/09/06 11:08:31;;;;;;;;;;;;;;;24.26;100.00;100254.84;4914246;29;19931;-74
2023/09/06 11:10:59;;;;;;;;;;;;;;;24.32;100.00;100251.31;4915392;29;19926;-74
2023/09/06 11:13:28;;;;;;;;;;;;;;;24.36;100.00;100252.50;4914090;29;20021;-74
2023/09/06 11:15:53;;;;;;;;;;;;;;;24.39;100.00;100254.75;4912751;29;19923;-73
2023/09/06 11:18:19;;;;;;;;;;;;;;;24.42;100.00;100248.97;4914912;29;20293;-74
2023/09/06 11:20:48;;;;;;;;;;;;;;;24.48;100.00;100248.09;4914200;29;20046;-76
2023/09/06 11:23:13;;;;;;;;;;;;;;;24.54;100.00;100247.22;4912850;29;19931;-76
2023/09/06 11:25:38;;;;;;;;;;;;;;;24.65;100.00;100249.22;4914303;29;20014;-75
2023/09/06 11:28:17;;;;;;;;;;;;;;;24.66;100.00;100245.50;4914049;29;19924;-76
2023/09/06 11:30:49;;;;;;;;;;;;;;;24.73;100.00;100246.28;4914585;29;19933;-77
2023/09/06 11:33:16;;;;;;;;;;;;;;;24.78;100.00;100238.34;4914472;29;19930;-77
2023/09/06 11:35:45;;;;;;;;;;;;;;;24.88;95.60;100243.25;4913908;29;21397;-76
2023/09/06 11:38:12;;;;;;;;;;;;;;;24.96;94.21;100244.91;4913807;29;20008;-75
2023/09/06 11:40:38;;;;;;;;;;;;;;;25.02;94.95;100233.22;4913474;29;19958;-75
2023/09/06 11:43:05;;;;;;;;;;;;;;;25.11;89.08;100226.50;4913970;29;19946;-74
2023/09/06 11:45:33;;;;;;;;;;;;;;;25.15;92.47;100231.22;4913972;29;20670;-74
2023/09/06 11:48:04;;;;;;;;;;;;;;;25.25;89.83;100249.66;4914264;29;19927;-76
2023/09/06 11:50:29;;;;;;;;;;;;;;;25.34;91.49;100232.09;4913707;29;19938;-75
2023/09/06 11:52:58;;;;;;;;;;;;;;;25.47;89.16;100225.75;4914131;29;19927;-75
2023/09/06 11:55:24;;;;;;;;;;;;;;;25.59;86.82;100230.22;4910322;29;19926;-75
2023/09/06 11:57:53;;;;;;;;;;;;;;;25.72;85.70;100223.00;4910721;29;20334;-74
2023/09/06 12:00:28;;;;;;;;;;;;;;;25.86;86.26;100219.13;4909568;29;20574;-76
2023/09/06 12:02:54;;;;;;;;;;;;;;;26.08;86.82;100217.59;4234487;29;10000811;-75
2023/09/06 12:05:26;;;;;;;;;;;;;;;26.27;84.07;100215.72;4909781;29;20395;-73
2023/09/06 12:07:54;;;;;;;;;;;;;;;26.45;82.47;100219.19;4914908;29;20284;-75
2023/09/06 12:10:23;;;;;;;;;;;;;;;26.65;82.60;100213.47;4912424;29;19923;-74
2023/09/06 12:12:49;;;;;;;;;;;;;;;26.85;82.31;100197.75;4907573;29;20361;-75
2023/09/06 12:15:17;;;;;;;;;;;;;;;27.02;81.34;100203.34;4914733;29;20022;-74
2023/09/06 12:17:45;;;;;;;;;;;;;;;27.20;78.43;100205.94;4913173;29;19930;-75
2023/09/06 12:20:20;;;;;;;;;;;;;;;27.30;77.21;100195.34;4913519;29;19923;-75
2023/09/06 12:22:48;;;;;;;;;;;;;;;27.49;76.61;100204.16;4915871;29;19978;-76
2023/09/06 12:25:30;;;;;;;;;;;;;;;27.59;74.06;100198.97;4911622;29;19923;-76
2023/09/06 12:27:55;;;;;;;;;;;;;;;27.74;75.00;100193.06;4915487;29;20395;-75